sensor_id;sensor_type;location;lat;lon;timestamp;pressure;altitude;pressure_sealevel;temperature;humidity
56142;BME280;42018;48.588;10.836;2023-01-29T00:00:22;97827.75;;;0.49;73.69
56142;BME280;42018;48.588;10.836;2023-01-29T00:03:08;97839.00;;;0.50;73.67
56142;BME280;42018;48.588;10.836;2023-01-29T00:05:53;97840.91;;;0.56;73.72
56142;BME280;42018;48.588;10.836;2023-01-29T00:08:38;97837.22;;;0.50;73.25
56142;BME280;42018;48.588;10.836;2023-01-29T00:11:24;97824.47;;;0.32;73.62
56142;BME280;42018;48.588;10.836;2023-01-29T00:14:09;97836.06;;;0.30;73.99
56142;BME280;42018;48.588;10.836;2023-01-29T00:16:55;97839.66;;;0.29;74.90
56142;BME280;42018;48.588;10.836;2023-01-29T00:19:40;97837.38;;;0.26;74.92
56142;BME280;42018;48.588;10.836;2023-01-29T00:22:25;97847.69;;;0.19;74.60
56142;BME280;42018;48.588;10.836;2023-01-29T00:25:11;97849.34;;;0.12;74.28
56142;BME280;42018;48.588;10.836;2023-01-29T00:27:56;97835.53;;;0.11;74.98
56142;BME280;42018;48.588;10.836;2023-01-29T00:30:42;97834.88;;;0.09;74.92
56142;BME280;42018;48.588;10.836;2023-01-29T00:33:27;97833.06;;;0.10;75.53
56142;BME280;42018;48.588;10.836;2023-01-29T00:36:15;97832.34;;;0.24;74.48
56142;BME280;42018;48.588;10.836;2023-01-29T00:39:01;97830.53;;;0.24;74.49
56142;BME280;42018;48.588;10.836;2023-01-29T00:41:54;97838.59;;;0.38;73.36
56142;BME280;42018;48.588;10.836;2023-01-29T00:44:58;97830.56;;;0.47;73.70
56142;BME280;42018;48.588;10.836;2023-01-29T00:47:43;97830.09;;;0.44;73.04
56142;BME280;42018;48.588;10.836;2023-01-29T00:50:29;97833.03;;;0.41;73.80
56142;BME280;42018;48.588;10.836;2023-01-29T00:53:14;97828.63;;;0.41;74.38
56142;BME280;42018;48.588;10.836;2023-01-29T00:56:00;97834.19;;;0.15;74.02
56142;BME280;42018;48.588;10.836;2023-01-29T00:58:45;97826.91;;;0.11;75.15
56142;BME280;42018;48.588;10.836;2023-01-29T01:01:30;97826.16;;;0.25;74.36
56142;BME280;42018;48.588;10.836;2023-01-29T01:04:34;97835.06;;;0.31;73.94
56142;BME280;42018;48.588;10.836;2023-01-29T01:07:20;97823.31;;;0.35;73.40
56142;BME280;42018;48.588;10.836;2023-01-29T01:10:12;97824.84;;;0.21;73.13
56142;BME280;42018;48.588;10.836;2023-01-29T01:13:07;97832.47;;;0.31;73.79
56142;BME280;42018;48.588;10.836;2023-01-29T01:15:52;97828.56;;;0.50;73.97
56142;BME280;42018;48.588;10.836;2023-01-29T01:18:37;97824.66;;;0.54;72.67
56142;BME280;42018;48.588;10.836;2023-01-29T01:21:23;97819.72;;;0.59;72.83
56142;BME280;42018;48.588;10.836;2023-01-29T01:24:08;97820.25;;;0.54;72.94
56142;BME280;42018;48.588;10.836;2023-01-29T01:26:54;97819.19;;;0.17;72.78
56142;BME280;42018;48.588;10.836;2023-01-29T01:29:39;97827.53;;;0.13;73.05
56142;BME280;42018;48.588;10.836;2023-01-29T01:32:25;97824.75;;;0.14;72.91
56142;BME280;42018;48.588;10.836;2023-01-29T01:35:11;97810.34;;;0.27;72.93
56142;BME280;42018;48.588;10.836;2023-01-29T01:37:58;97804.56;;;0.39;72.93
56142;BME280;42018;48.588;10.836;2023-01-29T01:40:44;97811.25;;;0.34;72.45
56142;BME280;42018;48.588;10.836;2023-01-29T01:43:46;97820.28;;;0.46;73.46
56142;BME280;42018;48.588;10.836;2023-01-29T01:46:36;97815.19;;;0.53;72.86
56142;BME280;42018;48.588;10.836;2023-01-29T01:49:22;97810.44;;;0.56;72.29
56142;BME280;42018;48.588;10.836;2023-01-29T01:52:09;97813.06;;;0.33;72.66
56142;BME280;42018;48.588;10.836;2023-01-29T01:54:56;97805.94;;;0.27;72.34
56142;BME280;42018;48.588;10.836;2023-01-29T01:57:42;97815.16;;;0.07;72.36
56142;BME280;42018;48.588;10.836;2023-01-29T02:00:29;97815.47;;;0.12;74.40
56142;BME280;42018;48.588;10.836;2023-01-29T02:03:16;97808.47;;;0.12;72.88
56142;BME280;42018;48.588;10.836;2023-01-29T02:06:22;97799.63;;;0.21;72.28
56142;BME280;42018;48.588;10.836;2023-01-29T02:09:31;97806.06;;;0.34;73.08
56142;BME280;42018;48.588;10.836;2023-01-29T02:12:22;97806.16;;;0.40;71.96
56142;BME280;42018;48.588;10.836;2023-01-29T02:15:09;97799.72;;;0.51;72.70
56142;BME280;42018;48.588;10.836;2023-01-29T02:17:55;97799.63;;;0.44;72.60
56142;BME280;42018;48.588;10.836;2023-01-29T02:20:43;97803.69;;;0.47;72.26
56142;BME280;42018;48.588;10.836;2023-01-29T02:27:13;97804.56;;;0.77;71.11
56142;BME280;42018;48.588;10.836;2023-01-29T02:30:08;97801.38;;;0.67;70.57
56142;BME280;42018;48.588;10.836;2023-01-29T02:33:05;97810.88;;;0.83;71.10
56142;BME280;42018;48.588;10.836;2023-01-29T02:42:01;97808.53;;;0.88;71.50
56142;BME280;42018;48.588;10.836;2023-01-29T02:47:57;97811.69;;;0.83;71.36
56142;BME280;42018;48.588;10.836;2023-01-29T02:50:48;97821.66;;;0.80;71.19
56142;BME280;42018;48.588;10.836;2023-01-29T03:02:58;97804.78;;;0.90;71.03
56142;BME280;42018;48.588;10.836;2023-01-29T03:05:53;97810.44;;;0.79;71.56
56142;BME280;42018;48.588;10.836;2023-01-29T03:08:46;97811.16;;;0.88;70.94
56142;BME280;42018;48.588;10.836;2023-01-29T03:11:38;97816.13;;;0.98;71.11
56142;BME280;42018;48.588;10.836;2023-01-29T03:14:31;97817.47;;;0.93;71.48
56142;BME280;42018;48.588;10.836;2023-01-29T03:17:56;97818.94;;;0.73;71.45
56142;BME280;42018;48.588;10.836;2023-01-29T03:20:46;97815.06;;;0.69;72.21
56142;BME280;42018;48.588;10.836;2023-01-29T03:23:34;97812.16;;;0.87;72.43
56142;BME280;42018;48.588;10.836;2023-01-29T03:26:40;97809.31;;;0.74;72.10
56142;BME280;42018;48.588;10.836;2023-01-29T03:29:48;97792.72;;;0.89;72.27
56142;BME280;42018;48.588;10.836;2023-01-29T03:32:54;97794.34;;;0.90;70.55
56142;BME280;42018;48.588;10.836;2023-01-29T03:35:45;97793.81;;;0.95;69.93
56142;BME280;42018;48.588;10.836;2023-01-29T03:38:33;97794.59;;;0.95;70.70
56142;BME280;42018;48.588;10.836;2023-01-29T03:41:27;97804.13;;;0.88;70.61
56142;BME280;42018;48.588;10.836;2023-01-29T03:44:34;97807.72;;;0.87;70.14
56142;BME280;42018;48.588;10.836;2023-01-29T03:53:48;97807.88;;;0.71;71.00
56142;BME280;42018;48.588;10.836;2023-01-29T03:59:40;97806.19;;;0.78;71.24
56142;BME280;42018;48.588;10.836;2023-01-29T04:02:32;97804.09;;;0.74;71.25
56142;BME280;42018;48.588;10.836;2023-01-29T04:05:23;97803.06;;;0.60;71.88
56142;BME280;42018;48.588;10.836;2023-01-29T04:08:14;97811.53;;;0.62;72.63
56142;BME280;42018;48.588;10.836;2023-01-29T04:11:06;97809.00;;;0.54;72.39
56142;BME280;42018;48.588;10.836;2023-01-29T04:13:55;97806.13;;;0.26;72.33
56142;BME280;42018;48.588;10.836;2023-01-29T04:16:47;97808.84;;;0.32;73.28
56142;BME280;42018;48.588;10.836;2023-01-29T04:19:35;97814.38;;;0.52;72.66
56142;BME280;42018;48.588;10.836;2023-01-29T04:22:24;97813.06;;;0.33;71.86
56142;BME280;42018;48.588;10.836;2023-01-29T04:25:14;97811.53;;;0.39;72.46
56142;BME280;42018;48.588;10.836;2023-01-29T04:31:00;97815.72;;;0.48;72.03
56142;BME280;42018;48.588;10.836;2023-01-29T04:33:58;97812.47;;;0.46;71.09
56142;BME280;42018;48.588;10.836;2023-01-29T04:39:48;97823.97;;;0.06;72.54
56142;BME280;42018;48.588;10.836;2023-01-29T04:46:17;97820.34;;;0.15;73.61
56142;BME280;42018;48.588;10.836;2023-01-29T04:55:16;97821.78;;;0.17;71.99
56142;BME280;42018;48.588;10.836;2023-01-29T04:58:27;97823.56;;;0.25;72.04
56142;BME280;42018;48.588;10.836;2023-01-29T05:01:15;97817.41;;;0.18;72.93
56142;BME280;42018;48.588;10.836;2023-01-29T05:04:06;97828.84;;;0.09;73.04
56142;BME280;42018;48.588;10.836;2023-01-29T05:06:54;97823.13;;;0.13;72.55
56142;BME280;42018;48.588;10.836;2023-01-29T05:09:41;97833.47;;;-0.02;72.31
56142;BME280;42018;48.588;10.836;2023-01-29T05:12:29;97829.25;;;-0.11;71.88
56142;BME280;42018;48.588;10.836;2023-01-29T05:15:19;97838.38;;;-0.07;72.91
56142;BME280;42018;48.588;10.836;2023-01-29T05:18:07;97832.53;;;-0.09;72.97
56142;BME280;42018;48.588;10.836;2023-01-29T05:20:55;97835.03;;;-0.23;72.26
56142;BME280;42018;48.588;10.836;2023-01-29T05:23:42;97830.78;;;-0.16;72.57
56142;BME280;42018;48.588;10.836;2023-01-29T05:26:37;97833.66;;;-0.11;72.11
56142;BME280;42018;48.588;10.836;2023-01-29T05:29:45;97822.84;;;0.08;72.29
56142;BME280;42018;48.588;10.836;2023-01-29T05:32:31;97819.81;;;0.19;72.43
56142;BME280;42018;48.588;10.836;2023-01-29T05:35:16;97815.66;;;0.33;71.72
56142;BME280;42018;48.588;10.836;2023-01-29T05:38:02;97813.81;;;0.42;72.37
56142;BME280;42018;48.588;10.836;2023-01-29T05:40:47;97826.09;;;0.33;72.20
56142;BME280;42018;48.588;10.836;2023-01-29T05:43:32;97818.16;;;0.50;71.08
56142;BME280;42018;48.588;10.836;2023-01-29T05:46:18;97818.53;;;0.46;70.27
56142;BME280;42018;48.588;10.836;2023-01-29T05:49:04;97818.88;;;0.43;71.03
56142;BME280;42018;48.588;10.836;2023-01-29T05:51:49;97812.28;;;0.24;70.73
56142;BME280;42018;48.588;10.836;2023-01-29T05:54:35;97810.91;;;0.37;70.57
56142;BME280;42018;48.588;10.836;2023-01-29T05:57:20;97803.97;;;0.29;71.28
56142;BME280;42018;48.588;10.836;2023-01-29T06:00:07;97802.34;;;0.28;71.15
56142;BME280;42018;48.588;10.836;2023-01-29T06:02:53;97811.44;;;0.32;71.18
56142;BME280;42018;48.588;10.836;2023-01-29T06:05:38;97811.84;;;0.44;71.85
56142;BME280;42018;48.588;10.836;2023-01-29T06:08:24;97816.38;;;0.50;71.28
56142;BME280;42018;48.588;10.836;2023-01-29T06:11:11;97812.38;;;0.39;71.60
56142;BME280;42018;48.588;10.836;2023-01-29T06:13:56;97818.91;;;0.35;71.50
56142;BME280;42018;48.588;10.836;2023-01-29T06:16:42;97812.88;;;0.35;72.17
56142;BME280;42018;48.588;10.836;2023-01-29T06:19:27;97810.97;;;0.52;71.64
56142;BME280;42018;48.588;10.836;2023-01-29T06:22:12;97812.06;;;0.34;70.49
56142;BME280;42018;48.588;10.836;2023-01-29T06:24:58;97814.44;;;0.21;70.94
56142;BME280;42018;48.588;10.836;2023-01-29T06:27:43;97810.09;;;0.13;71.36
56142;BME280;42018;48.588;10.836;2023-01-29T06:30:28;97813.00;;;0.18;71.10
56142;BME280;42018;48.588;10.836;2023-01-29T06:33:15;97801.31;;;0.37;72.17
56142;BME280;42018;48.588;10.836;2023-01-29T06:36:03;97796.50;;;0.26;70.49
56142;BME280;42018;48.588;10.836;2023-01-29T06:38:48;97793.19;;;0.32;70.53
56142;BME280;42018;48.588;10.836;2023-01-29T06:41:34;97787.31;;;0.53;70.30
56142;BME280;42018;48.588;10.836;2023-01-29T06:44:20;97780.88;;;0.64;70.59
56142;BME280;42018;48.588;10.836;2023-01-29T06:47:05;97774.41;;;0.75;70.49
56142;BME280;42018;48.588;10.836;2023-01-29T06:49:50;97788.16;;;0.54;70.21
56142;BME280;42018;48.588;10.836;2023-01-29T06:52:36;97784.50;;;0.40;70.15
56142;BME280;42018;48.588;10.836;2023-01-29T06:55:21;97790.81;;;0.45;70.42
56142;BME280;42018;48.588;10.836;2023-01-29T06:58:08;97794.59;;;0.43;69.50
56142;BME280;42018;48.588;10.836;2023-01-29T07:01:02;97794.81;;;0.33;70.20
56142;BME280;42018;48.588;10.836;2023-01-29T07:03:49;97791.91;;;0.05;70.56
56142;BME280;42018;48.588;10.836;2023-01-29T07:06:35;97799.03;;;0.11;71.36
56142;BME280;42018;48.588;10.836;2023-01-29T07:09:20;97801.78;;;0.18;71.57
56142;BME280;42018;48.588;10.836;2023-01-29T07:12:06;97800.44;;;0.22;70.23
56142;BME280;42018;48.588;10.836;2023-01-29T07:14:51;97808.25;;;0.22;70.56
56142;BME280;42018;48.588;10.836;2023-01-29T07:17:37;97803.25;;;0.12;70.38
56142;BME280;42018;48.588;10.836;2023-01-29T07:20:24;97806.97;;;0.18;71.79
56142;BME280;42018;48.588;10.836;2023-01-29T07:23:13;97807.94;;;-0.06;70.75
56142;BME280;42018;48.588;10.836;2023-01-29T07:26:04;97818.94;;;0.04;72.16
56142;BME280;42018;48.588;10.836;2023-01-29T07:28:49;97812.63;;;-0.02;71.85
56142;BME280;42018;48.588;10.836;2023-01-29T07:31:35;97817.84;;;-0.02;72.37
56142;BME280;42018;48.588;10.836;2023-01-29T07:34:20;97815.41;;;-0.03;72.25
56142;BME280;42018;48.588;10.836;2023-01-29T07:37:06;97815.09;;;-0.08;71.45
56142;BME280;42018;48.588;10.836;2023-01-29T07:39:51;97815.41;;;-0.03;72.24
56142;BME280;42018;48.588;10.836;2023-01-29T07:42:37;97811.94;;;0.05;71.92
56142;BME280;42018;48.588;10.836;2023-01-29T07:45:24;97810.41;;;0.18;73.00
56142;BME280;42018;48.588;10.836;2023-01-29T07:48:11;97815.53;;;0.27;71.34
56142;BME280;42018;48.588;10.836;2023-01-29T07:50:57;97815.22;;;0.30;71.17
56142;BME280;42018;48.588;10.836;2023-01-29T07:53:43;97826.50;;;0.22;71.21
56142;BME280;42018;48.588;10.836;2023-01-29T07:56:29;97822.25;;;0.21;71.20
56142;BME280;42018;48.588;10.836;2023-01-29T07:59:14;97820.00;;;0.18;71.08
56142;BME280;42018;48.588;10.836;2023-01-29T08:01:59;97824.84;;;0.21;71.22
56142;BME280;42018;48.588;10.836;2023-01-29T08:04:45;97824.03;;;0.29;70.17
56142;BME280;42018;48.588;10.836;2023-01-29T08:07:30;97822.50;;;0.11;71.43
56142;BME280;42018;48.588;10.836;2023-01-29T08:10:16;97828.59;;;0.27;71.35
56142;BME280;42018;48.588;10.836;2023-01-29T08:13:02;97830.00;;;0.06;71.49
56142;BME280;42018;48.588;10.836;2023-01-29T08:15:48;97830.13;;;0.13;70.87
56142;BME280;42018;48.588;10.836;2023-01-29T08:18:35;97830.03;;;0.29;71.60
56142;BME280;42018;48.588;10.836;2023-01-29T08:21:21;97837.34;;;0.34;70.56
56142;BME280;42018;48.588;10.836;2023-01-29T08:24:06;97847.06;;;0.40;70.86
56142;BME280;42018;48.588;10.836;2023-01-29T08:26:52;97844.28;;;0.41;70.24
56142;BME280;42018;48.588;10.836;2023-01-29T08:29:37;97845.69;;;0.29;69.91
56142;BME280;42018;48.588;10.836;2023-01-29T08:32:22;97846.91;;;0.10;70.81
56142;BME280;42018;48.588;10.836;2023-01-29T08:35:08;97847.75;;;0.11;71.15
56142;BME280;42018;48.588;10.836;2023-01-29T08:37:55;97848.69;;;0.41;70.68
56142;BME280;42018;48.588;10.836;2023-01-29T08:40:42;97843.25;;;0.51;70.26
56142;BME280;42018;48.588;10.836;2023-01-29T08:43:28;97845.22;;;0.48;69.17
56142;BME280;42018;48.588;10.836;2023-01-29T08:46:13;97845.31;;;0.55;70.08
56142;BME280;42018;48.588;10.836;2023-01-29T08:48:58;97851.59;;;0.69;70.06
56142;BME280;42018;48.588;10.836;2023-01-29T08:51:44;97847.72;;;0.65;69.72
56142;BME280;42018;48.588;10.836;2023-01-29T08:54:29;97841.03;;;0.62;69.69
56142;BME280;42018;48.588;10.836;2023-01-29T08:57:15;97854.81;;;0.71;69.73
56142;BME280;42018;48.588;10.836;2023-01-29T09:00:00;97857.16;;;0.66;69.80
56142;BME280;42018;48.588;10.836;2023-01-29T09:02:46;97861.69;;;0.72;69.99
56142;BME280;42018;48.588;10.836;2023-01-29T09:05:31;97862.03;;;0.69;69.15
56142;BME280;42018;48.588;10.836;2023-01-29T09:08:16;97867.13;;;0.62;69.25
56142;BME280;42018;48.588;10.836;2023-01-29T09:11:02;97869.94;;;0.53;68.81
56142;BME280;42018;48.588;10.836;2023-01-29T09:13:48;97863.84;;;0.60;68.88
56142;BME280;42018;48.588;10.836;2023-01-29T09:16:35;97868.97;;;0.77;69.26
56142;BME280;42018;48.588;10.836;2023-01-29T09:19:21;97876.25;;;0.81;69.08
56142;BME280;42018;48.588;10.836;2023-01-29T10:39:47;97826.03;;;0.64;66.54
56142;BME280;42018;48.588;10.836;2023-01-29T10:42:41;97830.06;;;0.90;66.04
56142;BME280;42018;48.588;10.836;2023-01-29T10:54:54;97831.91;;;0.43;66.44
56142;BME280;42018;48.588;10.836;2023-01-29T10:58:08;97826.50;;;0.68;66.37
56142;BME280;42018;48.588;10.836;2023-01-29T11:00:59;97824.50;;;0.70;65.56
56142;BME280;42018;48.588;10.836;2023-01-29T11:03:55;97825.28;;;0.56;65.11
56142;BME280;42018;48.588;10.836;2023-01-29T11:06:42;97819.94;;;0.26;66.43
56142;BME280;42018;48.588;10.836;2023-01-29T11:12:28;97806.34;;;0.16;67.71
56142;BME280;42018;48.588;10.836;2023-01-29T11:15:21;97804.47;;;0.02;66.71
56142;BME280;42018;48.588;10.836;2023-01-29T11:18:13;97806.06;;;0.11;67.21
56142;BME280;42018;48.588;10.836;2023-01-29T11:21:03;97793.19;;;0.32;67.07
56142;BME280;42018;48.588;10.836;2023-01-29T11:23:49;97800.81;;;0.57;65.41
56142;BME280;42018;48.588;10.836;2023-01-29T11:26:38;97796.13;;;0.52;65.22
56142;BME280;42018;48.588;10.836;2023-01-29T11:32:27;97802.31;;;0.74;64.33
56142;BME280;42018;48.588;10.836;2023-01-29T11:38:28;97780.13;;;0.93;65.14
56142;BME280;42018;48.588;10.836;2023-01-29T11:41:15;97783.75;;;1.07;64.64
56142;BME280;42018;48.588;10.836;2023-01-29T11:44:17;97786.63;;;1.12;64.41
56142;BME280;42018;48.588;10.836;2023-01-29T11:50:01;97788.63;;;1.25;64.46
56142;BME280;42018;48.588;10.836;2023-01-29T11:52:47;97788.59;;;1.10;64.04
56142;BME280;42018;48.588;10.836;2023-01-29T11:55:34;97787.28;;;1.14;64.68
56142;BME280;42018;48.588;10.836;2023-01-29T11:58:32;97773.38;;;0.99;63.43
56142;BME280;42018;48.588;10.836;2023-01-29T12:01:29;97771.66;;;0.91;64.17
56142;BME280;42018;48.588;10.836;2023-01-29T12:04:20;97781.13;;;0.54;65.53
56142;BME280;42018;48.588;10.836;2023-01-29T12:07:12;97768.25;;;0.53;64.42
56142;BME280;42018;48.588;10.836;2023-01-29T12:09:59;97758.28;;;0.56;64.45
56142;BME280;42018;48.588;10.836;2023-01-29T12:12:44;97754.19;;;0.77;64.22
56142;BME280;42018;48.588;10.836;2023-01-29T12:15:29;97738.53;;;0.77;64.00
56142;BME280;42018;48.588;10.836;2023-01-29T12:21:25;97730.91;;;0.37;65.80
56142;BME280;42018;48.588;10.836;2023-01-29T12:27:45;97723.25;;;0.74;66.19
56142;BME280;42018;48.588;10.836;2023-01-29T12:30:50;97731.03;;;0.21;65.57
56142;BME280;42018;48.588;10.836;2023-01-29T12:33:46;97730.88;;;-0.01;66.25
56142;BME280;42018;48.588;10.836;2023-01-29T12:36:44;97712.63;;;0.22;67.16
56142;BME280;42018;48.588;10.836;2023-01-29T12:39:37;97697.97;;;0.59;66.60
56142;BME280;42018;48.588;10.836;2023-01-29T12:42:23;97702.94;;;0.84;65.45
56142;BME280;42018;48.588;10.836;2023-01-29T12:45:15;97702.22;;;0.75;64.72
56142;BME280;42018;48.588;10.836;2023-01-29T12:48:08;97695.16;;;0.46;65.33
56142;BME280;42018;48.588;10.836;2023-01-29T12:50:59;97696.91;;;0.54;65.46
56142;BME280;42018;48.588;10.836;2023-01-29T12:54:11;97692.38;;;0.47;65.91
56142;BME280;42018;48.588;10.836;2023-01-29T12:57:00;97699.59;;;0.22;66.30
56142;BME280;42018;48.588;10.836;2023-01-29T12:59:51;97691.56;;;0.32;66.29
56142;BME280;42018;48.588;10.836;2023-01-29T13:05:53;97680.94;;;0.34;66.63
56142;BME280;42018;48.588;10.836;2023-01-29T13:08:44;97678.78;;;0.37;66.78
56142;BME280;42018;48.588;10.836;2023-01-29T13:11:47;97670.63;;;0.40;66.90
56142;BME280;42018;48.588;10.836;2023-01-29T13:14:50;97674.22;;;0.39;66.83
56142;BME280;42018;48.588;10.836;2023-01-29T13:17:49;97663.06;;;0.45;67.05
56142;BME280;42018;48.588;10.836;2023-01-29T13:20:36;97663.63;;;0.56;67.60
56142;BME280;42018;48.588;10.836;2023-01-29T13:23:32;97655.19;;;0.54;68.46
56142;BME280;42018;48.588;10.836;2023-01-29T13:26:20;97644.38;;;0.57;67.29
56142;BME280;42018;48.588;10.836;2023-01-29T13:29:06;97644.66;;;0.47;68.28
56142;BME280;42018;48.588;10.836;2023-01-29T13:31:53;97648.97;;;0.40;67.42
56142;BME280;42018;48.588;10.836;2023-01-29T13:34:46;97654.06;;;0.33;66.96
56142;BME280;42018;48.588;10.836;2023-01-29T13:37:36;97656.69;;;0.48;66.17
56142;BME280;42018;48.588;10.836;2023-01-29T13:40:27;97665.50;;;0.62;67.48
56142;BME280;42018;48.588;10.836;2023-01-29T13:43:19;97665.22;;;0.57;66.92
56142;BME280;42018;48.588;10.836;2023-01-29T13:46:11;97660.03;;;0.86;66.36
56142;BME280;42018;48.588;10.836;2023-01-29T13:48:58;97651.03;;;0.74;65.65
56142;BME280;42018;48.588;10.836;2023-01-29T13:51:48;97637.53;;;0.41;67.42
56142;BME280;42018;48.588;10.836;2023-01-29T13:54:34;97641.31;;;0.38;67.61
56142;BME280;42018;48.588;10.836;2023-01-29T14:06:09;97644.91;;;0.67;66.01
56142;BME280;42018;48.588;10.836;2023-01-29T14:08:54;97643.41;;;0.43;66.80
56142;BME280;42018;48.588;10.836;2023-01-29T14:11:46;97643.88;;;0.23;67.75
56142;BME280;42018;48.588;10.836;2023-01-29T14:17:33;97638.06;;;0.21;68.52
56142;BME280;42018;48.588;10.836;2023-01-29T14:20:27;97643.34;;;0.28;68.33
56142;BME280;42018;48.588;10.836;2023-01-29T14:29:19;97646.81;;;0.43;66.59
56142;BME280;42018;48.588;10.836;2023-01-29T14:32:17;97646.38;;;0.17;66.82
56142;BME280;42018;48.588;10.836;2023-01-29T14:35:24;97646.38;;;0.17;67.17
56142;BME280;42018;48.588;10.836;2023-01-29T14:38:12;97653.06;;;0.34;67.57
56142;BME280;42018;48.588;10.836;2023-01-29T14:41:13;97638.00;;;0.59;67.32
56142;BME280;42018;48.588;10.836;2023-01-29T14:59:12;97646.72;;;0.52;67.09
56142;BME280;42018;48.588;10.836;2023-01-29T15:02:13;97651.13;;;0.66;66.84
56142;BME280;42018;48.588;10.836;2023-01-29T15:05:04;97657.69;;;0.77;67.16
56142;BME280;42018;48.588;10.836;2023-01-29T15:07:55;97654.72;;;0.80;67.37
56142;BME280;42018;48.588;10.836;2023-01-29T15:10:53;97660.19;;;0.85;66.75
56142;BME280;42018;48.588;10.836;2023-01-29T15:14:19;97658.78;;;0.82;65.89
56142;BME280;42018;48.588;10.836;2023-01-29T15:20:43;97647.97;;;0.56;66.48
56142;BME280;42018;48.588;10.836;2023-01-29T15:23:32;97646.44;;;0.46;66.14
56142;BME280;42018;48.588;10.836;2023-01-29T15:26:19;97652.38;;;0.40;66.32
56142;BME280;42018;48.588;10.836;2023-01-29T15:29:05;97637.78;;;0.46;67.04
56142;BME280;42018;48.588;10.836;2023-01-29T15:31:51;97636.94;;;0.54;66.49
56142;BME280;42018;48.588;10.836;2023-01-29T15:34:41;97634.63;;;0.21;67.40
56142;BME280;42018;48.588;10.836;2023-01-29T15:37:32;97637.22;;;0.21;67.23
56142;BME280;42018;48.588;10.836;2023-01-29T15:40:18;97644.59;;;0.17;68.45
56142;BME280;42018;48.588;10.836;2023-01-29T15:43:19;97632.22;;;-0.04;68.50
56142;BME280;42018;48.588;10.836;2023-01-29T15:46:11;97634.34;;;-0.22;69.17
56142;BME280;42018;48.588;10.836;2023-01-29T15:49:05;97642.59;;;-0.18;68.33
56142;BME280;42018;48.588;10.836;2023-01-29T15:51:55;97642.72;;;-0.12;68.52
56142;BME280;42018;48.588;10.836;2023-01-29T15:54:42;97630.81;;;-0.06;69.30
56142;BME280;42018;48.588;10.836;2023-01-29T15:57:32;97638.19;;;-0.18;69.02
56142;BME280;42018;48.588;10.836;2023-01-29T16:00:26;97625.84;;;-0.16;69.39
56142;BME280;42018;48.588;10.836;2023-01-29T16:03:14;97618.22;;;-0.17;69.94
56142;BME280;42018;48.588;10.836;2023-01-29T16:06:00;97617.03;;;-0.15;69.99
56142;BME280;42018;48.588;10.836;2023-01-29T16:08:50;97616.38;;;-0.32;69.66
56142;BME280;42018;48.588;10.836;2023-01-29T16:11:37;97615.69;;;-0.11;70.17
56142;BME280;42018;48.588;10.836;2023-01-29T16:14:25;97612.34;;;0.04;69.56
56142;BME280;42018;48.588;10.836;2023-01-29T16:17:26;97617.09;;;0.00;68.58
56142;BME280;42018;48.588;10.836;2023-01-29T16:20:44;97607.69;;;-0.24;69.49
56142;BME280;42018;48.588;10.836;2023-01-29T16:23:35;97616.53;;;-0.33;70.05
56142;BME280;42018;48.588;10.836;2023-01-29T16:26:27;97612.88;;;-0.24;70.95
56142;BME280;42018;48.588;10.836;2023-01-29T16:29:19;97616.53;;;-0.33;70.70
56142;BME280;42018;48.588;10.836;2023-01-29T16:32:07;97618.66;;;-0.14;70.28
56142;BME280;42018;48.588;10.836;2023-01-29T16:34:56;97615.34;;;-0.08;70.73
56142;BME280;42018;48.588;10.836;2023-01-29T16:37:47;97618.81;;;-0.15;70.95
56142;BME280;42018;48.588;10.836;2023-01-29T16:40:34;97625.38;;;-0.19;71.25
56142;BME280;42018;48.588;10.836;2023-01-29T16:46:22;97637.25;;;-0.17;70.54
56142;BME280;42018;48.588;10.836;2023-01-29T16:55:19;97646.03;;;-0.41;70.29
56142;BME280;42018;48.588;10.836;2023-01-29T16:58:14;97643.13;;;-0.23;70.66
56142;BME280;42018;48.588;10.836;2023-01-29T17:01:11;97644.75;;;-0.22;71.01
56142;BME280;42018;48.588;10.836;2023-01-29T17:04:03;97649.19;;;-0.08;70.80
56142;BME280;42018;48.588;10.836;2023-01-29T17:06:58;97656.50;;;-0.26;71.11
56142;BME280;42018;48.588;10.836;2023-01-29T17:09:47;97655.91;;;-0.36;71.32
56142;BME280;42018;48.588;10.836;2023-01-29T17:12:35;97648.97;;;-0.44;71.83
56142;BME280;42018;48.588;10.836;2023-01-29T17:18:28;97661.66;;;-0.64;72.85
56142;BME280;42018;48.588;10.836;2023-01-29T17:21:13;97658.38;;;-0.66;72.41
56142;BME280;42018;48.588;10.836;2023-01-29T17:23:59;97650.06;;;-0.61;72.33
56142;BME280;42018;48.588;10.836;2023-01-29T17:26:44;97649.25;;;-0.62;73.52
56142;BME280;42018;48.588;10.836;2023-01-29T17:29:30;97656.19;;;-0.54;73.73
56142;BME280;42018;48.588;10.836;2023-01-29T17:32:16;97649.38;;;-0.55;73.51
56142;BME280;42018;48.588;10.836;2023-01-29T17:35:03;97650.50;;;-0.50;73.15
56142;BME280;42018;48.588;10.836;2023-01-29T17:37:50;97651.69;;;-0.60;73.36
56142;BME280;42018;48.588;10.836;2023-01-29T17:40:39;97647.72;;;-0.79;73.87
56142;BME280;42018;48.588;10.836;2023-01-29T17:43:26;97646.72;;;-0.70;73.93
56142;BME280;42018;48.588;10.836;2023-01-29T17:46:16;97650.59;;;-0.66;74.31
56142;BME280;42018;48.588;10.836;2023-01-29T17:49:02;97651.78;;;-0.54;73.75
56142;BME280;42018;48.588;10.836;2023-01-29T17:51:49;97649.84;;;-0.52;73.86
56142;BME280;42018;48.588;10.836;2023-01-29T17:54:34;97652.72;;;-0.46;73.38
56142;BME280;42018;48.588;10.836;2023-01-29T17:57:20;97651.59;;;-0.44;73.67
56142;BME280;42018;48.588;10.836;2023-01-29T18:00:23;97649.59;;;-0.65;74.69
56142;BME280;42018;48.588;10.836;2023-01-29T18:03:09;97648.56;;;-0.56;73.99
56142;BME280;42018;48.588;10.836;2023-01-29T18:05:54;97650.41;;;-0.64;74.24
56142;BME280;42018;48.588;10.836;2023-01-29T18:08:40;97647.22;;;-0.75;74.39
56142;BME280;42018;48.588;10.836;2023-01-29T18:11:25;97642.22;;;-0.84;74.93
56142;BME280;42018;48.588;10.836;2023-01-29T18:14:12;97635.03;;;-0.82;74.56
56142;BME280;42018;48.588;10.836;2023-01-29T18:16:57;97643.25;;;-0.93;75.16
56142;BME280;42018;48.588;10.836;2023-01-29T18:19:43;97638.34;;;-0.88;75.36